CheckWX is a tool to help pilots better visualize weather data.  It is not intended as a substitute for an official pre-flight weather briefing.

19:42:44 UTC

LWOH METAR
Ohrid St. Paul the Apostle Airport
Ohrid, Macedonia
Current

13 mins ago

LWOH 211930Z 31004KT CAVOK 11/06 Q1024
Observed
Sep-21 @ 19:30 UTC
Wind
  • 310° at 4 KTS
Visibility
10,000+ meters
Flight Rules
VFR
Cloud Levels
  • Clear skies
Temperature
11°C / 52°F
Dewpoint
C / 43°F
Humidity
72%
Altimeter
30.24" Hg
Pressure
1023.92 hPa
Previous

43 mins ago

LWOH 211900Z 31004KT CAVOK 10/06 Q1024
Observed
Sep-21 @ 19:00 UTC
Wind
  • 310° at 4 KTS
Visibility
10,000+ meters
Flight Rules
VFR
Cloud Levels
  • Clear skies
Temperature
10°C / 50°F
Dewpoint
C / 43°F
Humidity
76%
Altimeter
30.24" Hg
Pressure
1023.92 hPa
Previous

1 hour ago

LWOH 211830Z 31003KT CAVOK 11/06 Q1024
Observed
Sep-21 @ 18:30 UTC
Wind
  • 310° at 3 KTS
Visibility
10,000+ meters
Flight Rules
VFR
Cloud Levels
  • Clear skies
Temperature
11°C / 52°F
Dewpoint
C / 43°F
Humidity
72%
Altimeter
30.24" Hg
Pressure
1023.92 hPa